Time;durP1;ratioP1;P1;durP2;ratioP2;P2;SDS_P1;SDS_P2;PMS_P1;PMS_P2;Temp;Humidity;BMP_temperature;BMP_pressure;BME280_temperature;BME280_humidity;BME280_pressure;Samples;Min_cycle;Max_cycle;Signal;HPM_P1;HPM_P2
2021/03/09 00:02:28;;;;;;;4.38;1.83;;;;;;;1.70;81.74;101223.19;5219397;28;20035;-76
2021/03/09 00:04:59;;;;;;;6.55;2.15;;;;;;;1.68;81.01;101224.91;5215199;28;20025;-76
2021/03/09 00:07:29;;;;;;;6.72;2.25;;;;;;;1.69;81.47;101218.91;5192601;28;20098;-77
2021/03/09 00:09:59;;;;;;;4.50;1.65;;;;;;;1.73;81.49;101220.66;5213625;28;20035;-76
2021/03/09 00:12:30;;;;;;;6.07;2.13;;;;;;;1.78;80.90;101231.84;5219889;28;20395;-77
2021/03/09 00:15:01;;;;;;;5.93;1.80;;;;;;;1.80;80.23;101231.03;5216332;28;20078;-75
2021/03/09 00:17:32;;;;;;;5.05;1.90;;;;;;;1.79;80.29;101231.03;5214317;28;20025;-76
2021/03/09 00:20:04;;;;;;;6.63;2.20;;;;;;;1.73;79.27;101220.66;5214229;28;20533;-77
2021/03/09 00:22:34;;;;;;;6.43;1.90;;;;;;;1.82;79.51;101220.75;5217865;28;20458;-77
2021/03/09 00:25:05;;;;;;;4.38;1.52;;;;;;;1.79;79.98;101221.56;5219109;28;20107;-76
2021/03/09 00:27:35;;;;;;;5.63;2.30;;;;;;;1.84;80.76;101216.47;5214857;28;20091;-76
2021/03/09 00:30:06;;;;;;;4.65;1.92;;;;;;;1.76;80.17;101209.53;5214645;28;20025;-76
2021/03/09 00:32:37;;;;;;;4.57;1.90;;;;;;;1.79;79.82;101213.00;5215535;28;20106;-77
2021/03/09 00:35:07;;;;;;;7.68;2.03;;;;;;;1.85;80.24;101215.63;5215511;28;20044;-76
2021/03/09 00:37:37;;;;;;;6.47;1.80;;;;;;;1.78;78.93;101209.53;5215188;28;20100;-76
2021/03/09 00:40:08;;;;;;;4.90;2.03;;;;;;;1.71;79.16;101209.47;5216392;28;20021;-76
2021/03/09 00:42:38;;;;;;;4.68;1.80;;;;;;;1.82;78.21;101213.03;5220876;28;20486;-77
2021/03/09 00:45:09;;;;;;;5.13;2.05;;;;;;;1.91;79.70;101206.25;5215010;28;20525;-76
2021/03/09 00:47:40;;;;;;;6.40;1.90;;;;;;;1.82;78.70;101213.03;5214777;28;20620;-76
2021/03/09 00:50:10;;;;;;;4.47;1.95;;;;;;;1.94;80.33;101202.81;5213729;28;20025;-76
2021/03/09 00:52:41;;;;;;;5.88;1.77;;;;;;;1.81;80.69;101207.00;5214469;28;20025;-76
2021/03/09 00:55:11;;;;;;;5.82;2.20;;;;;;;1.80;80.41;101199.28;5213820;28;20032;-76
2021/03/09 00:57:42;;;;;;;6.45;1.92;;;;;;;1.79;79.51;101200.13;5214978;28;20383;-75
2021/03/09 01:00:17;;;;;;;5.72;2.38;;;;;;;1.86;79.37;101196.75;5213680;28;20029;-76
2021/03/09 01:02:47;;;;;;;8.38;1.90;;;;;;;1.82;78.02;101188.09;5212601;28;20049;-75
2021/03/09 01:05:18;;;;;;;8.40;2.20;;;;;;;1.82;78.01;101187.25;5194916;28;20268;-76
2021/03/09 01:07:49;;;;;;;4.15;1.70;;;;;;;1.91;77.79;101179.59;5213480;28;20030;-76
2021/03/09 01:10:21;;;;;;;7.07;2.28;;;;;;;1.92;78.50;101178.75;5218818;28;20027;-76
2021/03/09 01:12:51;;;;;;;5.07;1.90;;;;;;;1.92;78.78;101171.91;5222394;28;20021;-75
2021/03/09 01:15:21;;;;;;;5.25;1.95;;;;;;;1.87;79.60;101175.28;5214899;28;20071;-76
2021/03/09 01:17:52;;;;;;;6.43;2.05;;;;;;;1.82;79.88;101171.81;5219977;28;20197;-75
2021/03/09 01:20:22;;;;;;;6.45;1.90;;;;;;;1.91;79.88;101175.31;5217454;28;20025;-76
2021/03/09 01:22:53;;;;;;;4.60;1.98;;;;;;;1.90;80.50;101176.19;5217901;28;20025;-76
2021/03/09 01:25:23;;;;;;;5.82;2.08;;;;;;;1.95;79.93;101166.75;5205077;28;20025;-76
2021/03/09 01:27:53;;;;;;;5.00;1.73;;;;;;;1.86;78.00;101163.25;5203772;28;20466;-76
2021/03/09 01:30:24;;;;;;;4.40;1.90;;;;;;;1.91;79.96;101161.56;5213964;28;20032;-76
2021/03/09 01:32:54;;;;;;;3.80;2.15;;;;;;;1.94;79.97;101156.44;5214009;28;20048;-76
2021/03/09 01:35:24;;;;;;;4.78;2.28;;;;;;;1.76;78.62;101152.84;5212914;28;20484;-76
2021/03/09 01:37:55;;;;;;;6.40;2.20;;;;;;;1.92;79.98;101158.13;5213327;28;20104;-76
2021/03/09 01:40:26;;;;;;;7.32;2.05;;;;;;;1.72;79.31;101148.53;5216216;28;20100;-76
2021/03/09 01:42:56;;;;;;;5.93;2.35;;;;;;;1.79;79.74;101146.03;5219166;28;20029;-76
2021/03/09 01:45:27;;;;;;;6.10;1.98;;;;;;;1.88;80.70;101139.22;5212867;28;20056;-76
2021/03/09 01:48:04;;;;;;;5.72;2.13;;;;;;;1.80;79.79;101137.44;5212324;28;20064;-76
2021/03/09 01:50:36;;;;;;;6.05;1.90;;;;;;;1.62;79.74;101132.13;5213887;28;20433;-76
2021/03/09 01:53:07;;;;;;;5.40;2.08;;;;;;;1.79;81.50;101128.84;5207711;28;20029;-75
2021/03/09 01:55:38;;;;;;;5.88;2.20;;;;;;;1.74;80.83;101126.22;5216867;28;20025;-76
2021/03/09 01:58:10;;;;;;;4.88;2.00;;;;;;;1.79;81.44;101120.25;5210475;28;20021;-76
2021/03/09 02:00:40;;;;;;;4.70;2.40;;;;;;;1.80;81.55;101122.81;5200223;28;20410;-76
2021/03/09 02:03:11;;;;;;;7.13;1.98;;;;;;;1.74;81.88;101118.47;5214520;28;20032;-76
2021/03/09 02:05:41;;;;;;;5.50;2.00;;;;;;;1.71;82.24;101126.19;5211935;28;20488;-76
2021/03/09 02:08:12;;;;;;;5.25;1.95;;;;;;;1.64;82.51;101117.53;5218397;28;20013;-76
2021/03/09 02:10:42;;;;;;;4.70;2.28;;;;;;;1.64;82.22;101117.53;5217310;28;20032;-76
2021/03/09 02:13:26;;;;;;;4.47;2.15;;;;;;;1.70;83.40;101112.44;5221450;28;20379;-75
2021/03/09 02:16:05;;;;;;;8.18;2.20;;;;;;;1.65;84.04;101116.69;5222500;28;20024;-75
2021/03/09 02:18:44;;;;;;;6.07;2.35;;;;;;;1.62;84.27;101110.66;5213759;28;20012;-76
2021/03/09 02:21:33;;;;;;;5.82;2.28;;;;;;;1.58;84.40;101103.75;5196881;28;20089;-76
2021/03/09 02:24:21;;;;;;;8.20;2.10;;;;;;;1.51;84.66;101095.09;5221539;28;20032;-76
2021/03/09 02:27:22;;;;;;;5.13;2.30;;;;;;;1.50;84.61;101095.94;5215909;28;20027;-76
2021/03/09 02:30:07;;;;;;;6.28;2.00;;;;;;;1.49;84.25;101096.81;5213247;28;20265;-75
2021/03/09 02:32:42;;;;;;;3.80;2.00;;;;;;;1.47;84.42;101101.09;5211227;28;20499;-76
2021/03/09 02:35:15;;;;;;;5.40;2.15;;;;;;;1.50;84.48;101095.06;5211457;28;20040;-76
2021/03/09 02:37:47;;;;;;;5.30;2.10;;;;;;;1.38;84.46;101095.00;5222576;28;20422;-76
2021/03/09 02:40:19;;;;;;;5.35;2.28;;;;;;;1.48;84.47;101084.78;5216544;28;20110;-76
2021/03/09 02:42:56;;;;;;;5.75;2.40;;;;;;;1.49;84.46;101076.19;5221890;28;20028;-76
2021/03/09 02:45:27;;;;;;;4.70;2.13;;;;;;;1.43;84.42;101078.69;5212111;28;20013;-75
2021/03/09 02:48:00;;;;;;;6.55;2.42;;;;;;;1.45;83.99;101076.16;5210848;28;20476;-76
2021/03/09 02:50:33;;;;;;;5.50;2.20;;;;;;;1.42;84.46;101073.56;5211223;28;20024;-76
2021/03/09 02:53:09;;;;;;;6.32;2.30;;;;;;;1.36;84.87;101070.91;5211257;28;20389;-76
2021/03/09 02:55:42;;;;;;;8.50;2.30;;;;;;;1.30;85.23;101076.88;5212499;28;20443;-76
2021/03/09 02:58:14;;;;;;;5.45;2.10;;;;;;;1.36;85.35;101076.06;5216135;28;20036;-76
2021/03/09 03:00:45;;;;;;;5.28;2.03;;;;;;;1.35;85.30;101077.78;5217959;28;20296;-76
2021/03/09 03:03:17;;;;;;;4.80;2.40;;;;;;;1.31;85.20;101068.31;5210428;28;20112;-76
2021/03/09 03:05:48;;;;;;;4.95;2.00;;;;;;;1.28;85.50;101067.41;5211269;28;20021;-76
2021/03/09 03:08:19;;;;;;;7.70;2.60;;;;;;;1.31;85.19;101064.88;5212207;28;20021;-76
2021/03/09 03:10:52;;;;;;;4.68;2.20;;;;;;;1.37;85.50;101068.38;5198303;28;20027;-76
2021/03/09 03:13:24;;;;;;;5.13;2.40;;;;;;;1.31;85.13;101062.28;5219490;28;20033;-75
2021/03/09 03:15:56;;;;;;;5.38;2.10;;;;;;;1.30;85.58;101064.03;5212555;28;20059;-77
2021/03/09 03:18:29;;;;;;;7.32;2.78;;;;;;;1.34;85.77;101064.88;5210473;28;20025;-76
2021/03/09 03:21:01;;;;;;;4.35;2.60;;;;;;;1.31;85.99;101063.16;5210826;28;20463;-76
2021/03/09 03:26:09;;;;;;;4.50;2.50;;;;;;;1.32;86.05;101064.00;5231787;28;20053;-78
2021/03/09 03:28:44;;;;;;;5.00;2.15;;;;;;;1.31;85.94;101045.16;5232970;28;20112;-78
2021/03/09 03:31:14;;;;;;;6.30;2.38;;;;;;;1.24;86.28;101053.66;5218659;28;20031;-78
2021/03/09 03:33:45;;;;;;;5.63;2.50;;;;;;;1.24;86.36;101050.22;5242990;28;20024;-78
2021/03/09 03:36:17;;;;;;;5.10;2.55;;;;;;;1.21;86.11;101047.63;5242054;28;20111;-78
2021/03/09 03:38:48;;;;;;;5.35;1.98;;;;;;;1.16;86.17;101051.84;5225492;28;20024;-78
2021/03/09 03:41:18;;;;;;;6.88;2.70;;;;;;;1.07;86.16;101042.31;5236926;28;20016;-78
2021/03/09 03:43:48;;;;;;;7.03;2.53;;;;;;;1.02;86.51;101043.13;5229060;28;20021;-78
2021/03/09 03:46:19;;;;;;;5.70;2.70;;;;;;;1.07;86.74;101049.19;5220975;28;20024;-78
2021/03/09 03:48:49;;;;;;;6.75;2.70;;;;;;;1.05;86.84;101045.75;5227973;28;20029;-77
2021/03/09 03:51:26;;;;;;;5.03;2.35;;;;;;;1.04;87.48;101044.88;5222967;28;20471;-78
2021/03/09 03:54:38;;;;;;;5.90;2.65;;;;;;;0.90;87.39;101040.44;5200499;28;20028;-78
2021/03/09 03:57:26;;;;;;;6.57;2.75;;;;;;;0.95;88.17;101044.81;5216723;28;20021;-78
2021/03/09 04:00:00;;;;;;;6.05;2.47;;;;;;;0.94;88.25;101030.22;5217370;28;20479;-77
2021/03/09 04:02:31;;;;;;;9.30;2.72;;;;;;;0.98;88.00;101025.94;5218270;28;20025;-78
2021/03/09 04:05:05;;;;;;;5.38;2.47;;;;;;;0.80;88.05;101028.31;5217779;28;20025;-78
2021/03/09 04:07:38;;;;;;;6.30;2.70;;;;;;;0.84;88.36;101027.50;5215645;28;20082;-78
2021/03/09 04:10:09;;;;;;;5.95;2.80;;;;;;;0.88;88.44;101024.97;5215154;28;20088;-78
2021/03/09 04:12:40;;;;;;;12.38;3.40;;;;;;;0.89;87.96;101019.00;5222106;28;20116;-78
2021/03/09 04:15:12;;;;;;;5.82;2.70;;;;;;;0.84;87.78;101030.97;5229668;28;20468;-78
2021/03/09 04:17:43;;;;;;;6.82;2.60;;;;;;;0.76;87.98;101017.13;5217396;28;20033;-79
2021/03/09 04:20:14;;;;;;;8.13;3.10;;;;;;;0.86;88.45;101020.69;5214641;28;20044;-78
2021/03/09 04:22:45;;;;;;;4.35;2.40;;;;;;;0.79;88.97;101021.47;5215720;28;20033;-79
2021/03/09 04:25:17;;;;;;;5.07;2.78;;;;;;;0.73;88.50;101008.53;5216102;28;20037;-78
2021/03/09 04:27:48;;;;;;;6.88;2.90;;;;;;;0.82;89.10;101011.19;5221125;28;20025;-79
2021/03/09 04:30:19;;;;;;;4.75;2.75;;;;;;;0.83;88.95;101013.78;5228194;28;20021;-78
2021/03/09 04:32:49;;;;;;;7.43;2.80;;;;;;;0.79;88.15;101006.91;5199385;28;20017;-78
2021/03/09 04:35:20;;;;;;;8.38;3.00;;;;;;;0.92;88.68;101001.00;5205409;28;20033;-79
2021/03/09 04:37:51;;;;;;;7.25;3.17;;;;;;;0.91;88.86;101006.16;5211626;28;20025;-78
2021/03/09 04:40:22;;;;;;;7.07;3.05;;;;;;;1.04;88.59;101013.16;5212041;28;20075;-79
2021/03/09 04:42:52;;;;;;;7.65;3.28;;;;;;;1.04;88.35;101003.72;5218340;28;20616;-78
2021/03/09 04:45:23;;;;;;;8.23;3.45;;;;;;;1.20;88.00;101005.56;5211511;28;20108;-78
2021/03/09 04:47:53;;;;;;;7.85;3.00;;;;;;;1.11;87.91;101002.94;5210625;28;20060;-78
2021/03/09 04:50:25;;;;;;;7.38;3.20;;;;;;;1.25;88.28;101001.31;5211378;28;20021;-78
2021/03/09 04:52:57;;;;;;;8.10;3.08;;;;;;;1.28;87.81;101001.38;5197196;28;20509;-78
2021/03/09 04:55:27;;;;;;;7.05;2.72;;;;;;;1.26;87.79;100997.91;5217262;28;20044;-78
2021/03/09 04:57:58;;;;;;;6.43;2.97;;;;;;;1.32;87.41;100992.81;5222479;28;20470;-79
2021/03/09 05:00:28;;;;;;;5.93;2.92;;;;;;;1.35;87.33;100995.41;5219506;28;20542;-78
2021/03/09 05:02:59;;;;;;;7.93;2.97;;;;;;;1.43;87.41;100990.31;5219339;28;20029;-78
2021/03/09 05:05:29;;;;;;;11.30;3.08;;;;;;;1.42;87.27;100994.59;5219376;28;20360;-78
2021/03/09 05:07:59;;;;;;;5.82;2.90;;;;;;;1.45;87.51;100994.66;5220680;28;20053;-79
2021/03/09 05:10:30;;;;;;;7.43;3.20;;;;;;;1.56;86.89;100992.16;5207554;28;20024;-78
2021/03/09 05:13:00;;;;;;;6.82;3.38;;;;;;;1.61;86.96;100986.16;5208512;28;20593;-78
2021/03/09 05:15:31;;;;;;;5.80;3.08;;;;;;;1.48;86.69;100989.50;5209188;28;20050;-79
2021/03/09 05:18:02;;;;;;;9.07;3.30;;;;;;;1.42;87.66;100993.75;5207763;28;20143;-78
2021/03/09 05:20:32;;;;;;;7.03;2.92;;;;;;;1.34;87.34;100991.13;5222823;28;20035;-79
2021/03/09 05:23:02;;;;;;;6.05;3.20;;;;;;;1.49;88.05;100991.22;5207440;28;20474;-79
2021/03/09 05:25:33;;;;;;;6.32;3.35;;;;;;;1.51;87.87;100983.50;5224648;28;20109;-78
2021/03/09 05:28:04;;;;;;;7.10;3.20;;;;;;;1.59;87.48;100987.84;5202963;28;20024;-79
2021/03/09 05:30:34;;;;;;;6.47;3.30;;;;;;;1.52;87.52;100988.69;5221603;28;20055;-79
2021/03/09 05:33:05;;;;;;;6.88;2.88;;;;;;;1.62;87.45;100976.72;5226895;28;20037;-79
2021/03/09 05:35:35;;;;;;;7.75;3.60;;;;;;;1.37;87.75;100980.84;5214526;28;20020;-79
2021/03/09 05:38:05;;;;;;;7.03;3.20;;;;;;;1.55;87.86;100986.13;5221777;28;20059;-78
2021/03/09 05:40:36;;;;;;;7.07;3.40;;;;;;;1.45;87.90;100984.34;5220480;28;20100;-78
2021/03/09 05:43:06;;;;;;;8.07;3.42;;;;;;;1.53;87.68;100992.97;5223980;28;20021;-79
2021/03/09 05:45:37;;;;;;;8.05;3.20;;;;;;;1.51;88.39;100988.66;5222172;28;20051;-78
2021/03/09 05:48:08;;;;;;;7.25;3.67;;;;;;;1.53;87.87;100987.81;5224397;28;20029;-79
2021/03/09 05:50:38;;;;;;;11.73;3.88;;;;;;;1.38;88.34;100990.28;5206993;28;20028;-78
2021/03/09 05:53:09;;;;;;;6.78;3.38;;;;;;;1.31;89.14;100985.94;5224782;28;20669;-79
2021/03/09 05:55:39;;;;;;;6.40;3.17;;;;;;;1.45;88.30;100983.47;5224614;28;20032;-79
2021/03/09 05:58:10;;;;;;;5.72;3.33;;;;;;;1.46;88.11;100988.63;5227799;28;20024;-79
2021/03/09 06:00:41;;;;;;;6.93;3.47;;;;;;;1.80;87.09;100988.00;5220069;28;20028;-78
2021/03/09 06:03:11;;;;;;;10.55;3.72;;;;;;;1.71;86.47;100989.69;5221280;28;20031;-79
2021/03/09 06:05:41;;;;;;;7.63;3.28;;;;;;;1.70;86.31;100990.50;5222918;28;20028;-79
2021/03/09 06:08:12;;;;;;;8.25;3.35;;;;;;;1.77;86.49;100998.28;5242494;28;20074;-79
2021/03/09 06:10:43;;;;;;;6.22;3.17;;;;;;;1.72;86.59;100989.66;5244643;28;20025;-79
2021/03/09 06:13:33;;;;;;;6.95;3.17;;;;;;;1.94;86.27;100986.34;5237935;28;20108;-79
2021/03/09 06:16:03;;;;;;;9.40;3.70;;;;;;;1.99;86.95;100987.25;5221655;28;20470;-79
2021/03/09 06:18:33;;;;;;;6.47;3.35;;;;;;;1.93;86.89;100987.22;5218328;28;20020;-79
2021/03/09 06:21:14;;;;;;;10.73;4.00;;;;;;;1.94;87.38;100986.34;5207244;28;20360;-79
2021/03/09 06:23:45;;;;;;;8.98;3.97;;;;;;;2.01;86.71;100988.97;5189281;28;20021;-79
2021/03/09 06:26:33;;;;;;;7.13;3.80;;;;;;;2.10;86.70;100983.88;5205233;28;20087;-80
2021/03/09 06:29:11;;;;;;;7.38;3.67;;;;;;;2.11;86.97;100989.88;5206852;28;20614;-80
2021/03/09 06:31:47;;;;;;;5.72;3.28;;;;;;;2.11;85.70;100982.16;5227322;28;20028;-79
2021/03/09 06:34:32;;;;;;;11.32;3.60;;;;;;;2.24;85.91;100986.50;5225539;28;20483;-79
2021/03/09 06:37:02;;;;;;;9.00;3.72;;;;;;;2.26;86.26;100984.78;5239122;28;20052;-79
2021/03/09 06:39:48;;;;;;;8.43;3.70;;;;;;;2.17;86.17;100984.78;5208156;28;20071;-79
2021/03/09 06:42:20;;;;;;;7.93;3.97;;;;;;;2.33;85.89;100986.56;5205893;28;20031;-79
2021/03/09 06:45:02;;;;;;;8.15;4.15;;;;;;;2.40;85.48;100981.44;5208076;28;20052;-79
2021/03/09 06:47:44;;;;;;;8.82;4.07;;;;;;;2.55;85.37;100983.19;5222813;28;20036;-79
2021/03/09 06:50:16;;;;;;;9.02;3.65;;;;;;;2.54;84.15;100991.78;5224972;28;20033;-79
2021/03/09 06:53:01;;;;;;;9.07;4.10;;;;;;;2.62;84.21;100982.34;5226848;28;20036;-79
2021/03/09 06:55:34;;;;;;;8.00;4.10;;;;;;;2.63;84.36;100989.22;5226347;28;20025;-79
2021/03/09 06:58:11;;;;;;;7.35;3.70;;;;;;;2.51;83.81;100986.63;5203724;28;20033;-79
2021/03/09 07:00:43;;;;;;;9.75;4.00;;;;;;;2.68;85.05;100987.53;5223967;28;20036;-79
2021/03/09 07:03:32;;;;;;;8.77;3.83;;;;;;;2.70;84.24;100983.25;5226184;28;20552;-79
2021/03/09 07:06:03;;;;;;;9.95;3.80;;;;;;;2.86;83.22;100990.16;5226267;28;20039;-79
2021/03/09 07:08:33;;;;;;;9.93;4.40;;;;;;;2.70;83.14;100988.41;5226760;28;20024;-79
2021/03/09 07:11:03;;;;;;;8.23;4.22;;;;;;;2.84;83.07;100987.56;5232527;28;20573;-79
2021/03/09 07:13:39;;;;;;;13.07;4.32;;;;;;;2.94;83.90;100983.28;5217158;28;20017;-79
2021/03/09 07:16:11;;;;;;;7.88;3.97;;;;;;;2.93;83.39;100989.31;5208376;28;20668;-79
2021/03/09 07:18:47;;;;;;;12.15;4.70;;;;;;;2.80;82.15;100998.75;5225031;28;20021;-79
2021/03/09 07:21:18;;;;;;;11.40;4.10;;;;;;;3.04;82.70;100995.34;5222259;28;20036;-80
2021/03/09 07:23:52;;;;;;;10.48;4.63;;;;;;;3.18;81.72;100997.06;5215174;28;20546;-80
2021/03/09 07:26:22;;;;;;;7.95;3.92;;;;;;;3.15;80.91;100998.78;5206801;28;20029;-80
2021/03/09 07:28:58;;;;;;;10.73;4.90;;;;;;;3.25;80.86;100996.25;5206693;28;20402;-80
2021/03/09 07:31:31;;;;;;;11.45;4.07;;;;;;;3.42;80.50;100999.69;5221205;28;20043;-80
2021/03/09 07:34:04;;;;;;;10.93;4.72;;;;;;;3.48;81.01;100998.78;5207830;28;20029;-81
2021/03/09 07:36:35;;;;;;;9.90;4.13;;;;;;;3.44;80.06;100999.66;5206954;28;20530;-80
2021/03/09 07:39:06;;;;;;;8.60;4.28;;;;;;;3.27;80.35;100999.69;5221998;28;20036;-80
2021/03/09 07:41:37;;;;;;;12.68;5.00;;;;;;;3.25;80.66;101003.09;5204914;28;20556;-80
2021/03/09 07:44:07;;;;;;;10.63;4.75;;;;;;;3.31;81.70;100997.94;5216869;28;20026;-80
2021/03/09 07:46:38;;;;;;;11.35;5.00;;;;;;;3.41;81.89;101000.53;5204104;28;20173;-80
2021/03/09 07:49:09;;;;;;;9.38;4.70;;;;;;;3.41;81.34;101003.13;5204130;28;20083;-79
2021/03/09 07:52:11;;;;;;;15.35;5.20;;;;;;;3.33;81.99;100993.66;5187811;28;20080;-79
2021/03/09 07:55:04;;;;;;;10.80;4.55;;;;;;;3.29;81.51;100995.38;5192724;28;20047;-79
2021/03/09 07:57:35;;;;;;;11.73;4.70;;;;;;;3.32;82.81;100995.38;5203695;28;20107;-80
2021/03/09 08:00:08;;;;;;;13.13;5.28;;;;;;;3.38;82.96;100992.78;5208590;28;20529;-80
2021/03/09 08:02:56;;;;;;;10.60;5.15;;;;;;;3.58;82.86;100994.50;5225992;28;20033;-79
2021/03/09 08:05:28;;;;;;;11.27;5.20;;;;;;;3.59;83.01;101001.38;5226283;28;20025;-79
2021/03/09 08:08:04;;;;;;;10.95;5.30;;;;;;;3.65;82.17;100991.03;5211285;28;20028;-79
2021/03/09 08:10:34;;;;;;;10.43;4.95;;;;;;;3.57;80.88;100985.88;5228027;28;20024;-80
2021/03/09 08:13:07;;;;;;;11.13;5.25;;;;;;;3.67;80.86;100999.66;5238183;28;20031;-80
2021/03/09 08:15:41;;;;;;;12.80;5.95;;;;;;;3.62;81.75;100996.22;5227137;28;20103;-79
2021/03/09 08:18:14;;;;;;;10.52;5.70;;;;;;;3.73;81.27;101002.22;5200613;28;20437;-80
2021/03/09 08:20:58;;;;;;;11.57;4.97;;;;;;;3.79;79.22;101006.53;5210545;28;20025;-80
2021/03/09 08:23:32;;;;;;;12.75;5.45;;;;;;;3.79;80.50;101002.22;5209944;28;20021;-80
2021/03/09 08:26:03;;;;;;;10.93;5.28;;;;;;;3.84;78.66;101000.50;5210575;28;20075;-79
2021/03/09 08:28:43;;;;;;;11.15;5.22;;;;;;;4.07;80.03;100996.13;5218026;28;20025;-78
2021/03/09 08:31:16;;;;;;;8.77;5.10;;;;;;;4.31;78.95;100992.59;5245272;28;20131;-79
2021/03/09 08:33:52;;;;;;;12.80;5.45;;;;;;;4.22;79.45;100990.91;5252347;28;20033;-79
2021/03/09 08:36:23;;;;;;;13.95;5.50;;;;;;;4.65;77.74;100989.84;5225354;28;20028;-80
2021/03/09 08:39:02;;;;;;;9.82;5.63;;;;;;;4.90;77.65;100986.25;5243538;28;20504;-80
2021/03/09 08:41:42;;;;;;;11.32;5.60;;;;;;;4.91;77.40;100987.97;5248099;28;20099;-80
2021/03/09 08:44:15;;;;;;;10.70;5.70;;;;;;;5.08;76.25;100988.72;5247622;28;20021;-80
2021/03/09 08:47:08;;;;;;;9.35;5.45;;;;;;;4.88;76.48;100992.31;5248161;28;20036;-80
2021/03/09 08:49:45;;;;;;;13.88;5.78;;;;;;;4.95;76.73;100989.69;5225693;28;20028;-80
2021/03/09 08:52:16;;;;;;;12.23;5.80;;;;;;;5.04;75.63;100981.88;5214774;28;20097;-80
2021/03/09 08:54:50;;;;;;;12.90;6.50;;;;;;;5.13;75.35;100974.00;5232205;28;20053;-80
2021/03/09 08:57:21;;;;;;;11.70;5.88;;;;;;;5.13;74.91;100978.34;5232421;28;20300;-79
2021/03/09 09:00:07;;;;;;;11.65;6.65;;;;;;;5.20;73.54;100973.09;5209536;28;20074;-80
2021/03/09 09:02:42;;;;;;;11.82;6.40;;;;;;;5.19;74.19;100976.53;5203966;28;20021;-78
2021/03/09 09:05:15;;;;;;;10.75;6.63;;;;;;;5.38;71.80;100978.16;5237228;28;20028;-80
2021/03/09 09:07:45;;;;;;;13.23;7.18;;;;;;;5.29;72.98;100978.19;5229784;28;20027;-80
2021/03/09 09:10:22;;;;;;;13.40;7.07;;;;;;;5.20;74.28;100970.50;5230836;28;20133;-80
2021/03/09 09:12:53;;;;;;;18.30;6.78;;;;;;;5.20;73.72;100967.94;5222982;28;20036;-80
2021/03/09 09:15:24;;;;;;;14.68;7.18;;;;;;;5.20;75.25;100969.63;5194525;28;20025;-80
2021/03/09 09:18:03;;;;;;;12.98;6.75;;;;;;;5.05;76.95;100964.56;5210645;28;20040;-79
2021/03/09 09:20:40;;;;;;;16.52;7.05;;;;;;;5.18;75.46;100969.63;5229770;28;20031;-80
2021/03/09 09:23:22;;;;;;;12.32;7.05;;;;;;;5.35;76.14;100962.59;5230231;28;20069;-79
2021/03/09 09:25:58;;;;;;;18.73;7.85;;;;;;;5.32;76.87;100964.38;5237406;23;20036;-79
2021/03/09 09:28:41;;;;;;;16.67;7.93;;;;;;;5.18;75.67;100961.03;5225327;28;20033;-80
2021/03/09 09:31:15;;;;;;;14.75;7.63;;;;;;;5.21;77.32;100961.88;5247690;28;20229;-80
2021/03/09 09:33:53;;;;;;;14.88;8.07;;;;;;;5.26;76.81;100954.03;5230920;28;20097;-80
2021/03/09 09:36:25;;;;;;;15.65;7.68;;;;;;;5.47;76.05;100954.72;5243981;28;20048;-80
2021/03/09 09:38:56;;;;;;;15.05;8.02;;;;;;;5.12;76.27;100959.34;5215774;28;20042;-81
2021/03/09 09:41:26;;;;;;;14.82;7.70;;;;;;;4.93;76.27;100954.28;5237579;28;20221;-80
2021/03/09 09:43:57;;;;;;;14.23;7.80;;;;;;;5.09;77.70;100953.31;5234048;28;20040;-80
2021/03/09 09:46:29;;;;;;;13.13;7.80;;;;;;;4.89;76.18;100962.94;5210073;28;20040;-80
2021/03/09 09:48:59;;;;;;;13.68;7.40;;;;;;;5.01;77.68;100957.69;5209746;28;20441;-80
2021/03/09 09:51:30;;;;;;;14.73;7.53;;;;;;;4.96;79.54;100955.13;5208944;28;20028;-80
2021/03/09 09:54:10;;;;;;;14.60;8.05;;;;;;;5.08;78.16;100960.25;5228363;28;20044;-81
2021/03/09 09:56:40;;;;;;;15.50;8.57;;;;;;;5.13;78.12;100963.66;5227629;28;20502;-80
2021/03/09 09:59:24;;;;;;;15.15;7.82;;;;;;;5.16;77.67;100961.03;5217687;28;20048;-80
2021/03/09 10:01:55;;;;;;;18.25;8.20;;;;;;;5.30;79.32;100955.75;5203838;28;20033;-80
2021/03/09 10:04:33;;;;;;;15.15;8.30;;;;;;;5.22;78.26;100957.53;5197811;28;20048;-81
2021/03/09 10:07:13;;;;;;;15.40;8.00;;;;;;;5.20;78.68;100960.16;5235409;28;20467;-80
2021/03/09 10:10:02;;;;;;;15.13;7.78;;;;;;;5.31;78.38;100950.53;5226588;28;20040;-80
2021/03/09 10:12:38;;;;;;;16.98;7.32;;;;;;;5.26;79.06;100949.72;5228791;28;20032;-80
2021/03/09 10:15:09;;;;;;;;;;;;;;;5.31;79.60;100953.13;5231665;28;20481;-80
2021/03/09 10:17:39;;;;;;;13.25;7.03;;;;;;;5.11;79.71;100955.03;5229317;28;19912;-79
2021/03/09 10:20:19;;;;;;;10.63;6.40;;;;;;;5.33;80.37;100947.94;5229009;28;20100;-80
2021/03/09 10:23:00;;;;;;;10.60;6.00;;;;;;;5.33;79.09;100956.56;5247119;28;20494;-80
2021/03/09 10:25:30;;;;;;;15.93;6.97;;;;;;;5.23;79.51;100949.75;5217823;28;20043;-80
2021/03/09 10:28:03;;;;;;;14.77;6.93;;;;;;;4.95;78.73;100955.16;5202798;28;20025;-79
2021/03/09 10:30:38;;;;;;;11.40;6.47;;;;;;;5.03;80.32;100946.47;5201974;28;20030;-80
2021/03/09 10:33:10;;;;;;;15.63;7.50;;;;;;;4.91;81.18;100951.72;5198817;28;20021;-80
2021/03/09 10:36:06;;;;;;;13.52;7.80;;;;;;;5.15;80.39;100950.69;5201332;28;20547;-80
2021/03/09 10:38:37;;;;;;;16.92;7.63;;;;;;;5.16;83.67;100940.31;5221437;28;20197;-80
2021/03/09 10:41:25;;;;;;;15.25;8.13;;;;;;;5.32;84.34;100938.47;5220135;28;20084;-81
2021/03/09 10:43:55;;;;;;;14.05;7.63;;;;;;;5.20;85.12;100934.25;5227162;28;20041;-80
2021/03/09 10:46:25;;;;;;;13.38;6.88;;;;;;;5.44;85.78;100944.38;5226117;28;20180;-80
2021/03/09 10:48:56;;;;;;;15.45;7.88;;;;;;;5.41;86.46;100944.41;5199873;28;20038;-80
2021/03/09 10:51:26;;;;;;;12.75;7.45;;;;;;;5.17;85.78;100943.78;5196802;28;20028;-81
2021/03/09 10:53:56;;;;;;;15.27;7.45;;;;;;;5.50;86.12;100940.00;5195735;28;20071;-78
2021/03/09 10:56:27;;;;;;;16.40;7.43;;;;;;;5.46;84.68;100938.34;5207456;28;20032;-80
2021/03/09 10:58:57;;;;;;;13.82;7.80;;;;;;;5.54;86.86;100941.69;5207130;28;20051;-80
2021/03/09 11:01:31;;;;;;;16.92;8.13;;;;;;;5.61;87.45;100940.75;5224019;28;20025;-80
2021/03/09 11:04:02;;;;;;;15.57;8.68;;;;;;;5.51;89.05;100939.13;5199286;28;20025;-80
2021/03/09 11:06:32;;;;;;;15.70;8.18;;;;;;;5.32;90.16;100934.13;5219517;28;20024;-81
2021/03/09 11:09:03;;;;;;;15.18;8.43;;;;;;;5.57;88.66;100933.03;5217751;28;20037;-80
2021/03/09 11:11:33;;;;;;;16.17;7.28;;;;;;;5.49;88.23;100932.25;5232871;28;20077;-80
2021/03/09 11:14:04;;;;;;;16.58;8.23;;;;;;;5.70;88.92;100932.88;5230294;28;20071;-80
2021/03/09 11:16:34;;;;;;;15.68;8.60;;;;;;;5.72;90.81;100928.53;5223462;28;20021;-80
2021/03/09 11:19:05;;;;;;;14.30;8.27;;;;;;;5.57;90.97;100933.03;5216969;28;20102;-80
2021/03/09 11:21:35;;;;;;;14.63;8.88;;;;;;;5.43;91.46;100937.50;5197858;28;20021;-80
2021/03/09 11:24:06;;;;;;;15.95;8.05;;;;;;;5.21;91.43;100933.38;5201840;28;20017;-79
2021/03/09 11:26:36;;;;;;;15.60;8.88;;;;;;;4.95;93.95;100931.88;5200498;28;20029;-79
2021/03/09 11:29:07;;;;;;;15.32;8.70;;;;;;;4.90;94.67;100931.88;5229501;28;20025;-80
2021/03/09 11:31:38;;;;;;;14.02;7.95;;;;;;;5.07;95.17;100929.16;5207073;28;20098;-79
2021/03/09 11:34:08;;;;;;;13.90;8.75;;;;;;;4.82;94.46;100938.00;5210482;28;20028;-79
2021/03/09 11:36:38;;;;;;;15.25;9.25;;;;;;;4.86;95.98;100930.19;5206723;28;20033;-80
2021/03/09 11:39:08;;;;;;;14.52;8.25;;;;;;;4.77;96.07;100927.66;5202661;28;20471;-80
2021/03/09 11:41:39;;;;;;;15.75;9.20;;;;;;;4.68;97.49;100935.50;5210258;28;20029;-79
2021/03/09 11:44:10;;;;;;;14.15;8.80;;;;;;;4.64;97.42;100936.34;5224435;28;20033;-79
2021/03/09 11:46:41;;;;;;;17.58;9.52;;;;;;;4.70;96.95;100935.47;5222308;28;20021;-78
2021/03/09 11:49:12;;;;;;;17.77;10.07;;;;;;;4.88;97.38;100920.69;5197684;28;20356;-81
2021/03/09 11:51:42;;;;;;;16.17;9.82;;;;;;;4.70;97.27;100918.22;5214870;28;20052;-80
2021/03/09 11:54:13;;;;;;;17.80;9.02;;;;;;;4.74;98.50;100917.31;5222366;28;20045;-78
2021/03/09 11:56:43;;;;;;;21.58;10.20;;;;;;;4.69;100.00;100918.22;5202017;28;20048;-80
2021/03/09 11:59:13;;;;;;;20.92;10.80;;;;;;;4.70;99.37;100920.81;5205803;28;20268;-80
2021/03/09 12:01:44;;;;;;;17.38;10.35;;;;;;;4.71;99.04;100919.94;5198227;28;20064;-78